createdAt,value
2018-12-09T00:01:01.991Z,98997.11
2018-12-09T00:03:32.504Z,98998.92
2018-12-09T00:06:03.437Z,98981.80
2018-12-09T00:08:38.033Z,98973.13
2018-12-09T00:11:06.488Z,98989.02
2018-12-09T00:13:35.052Z,98990.83
2018-12-09T00:16:03.584Z,99006.75
2018-12-09T00:18:31.998Z,99004.13
2018-12-09T00:21:00.516Z,98992.75
2018-12-09T00:23:28.967Z,98993.22
2018-12-09T00:25:57.489Z,98988.48
2018-12-09T00:28:25.921Z,98986.27
2018-12-09T00:30:54.320Z,98991.55
2018-12-09T00:33:22.776Z,98999.81
2018-12-09T00:35:51.316Z,98982.28
2018-12-09T00:38:20.066Z,98983.28
2018-12-09T00:40:48.467Z,98976.13
2018-12-09T00:43:16.910Z,98982.05
2018-12-09T00:45:45.417Z,98977.81
2018-12-09T00:48:13.823Z,98945.58
2018-12-09T00:50:45.926Z,98959.48
2018-12-09T00:53:14.293Z,98963.01
2018-12-09T00:55:43.824Z,98932.39
2018-12-09T00:58:12.603Z,98942.83
2018-12-09T01:00:41.208Z,98941.09
2018-12-09T01:03:09.758Z,98948.54
2018-12-09T01:05:38.621Z,98948.81
2018-12-09T01:10:49.191Z,98932.09
2018-12-09T01:13:17.723Z,98919.77
2018-12-09T01:15:46.168Z,98904.27
2018-12-09T01:18:14.649Z,98889.77
2018-12-09T01:20:43.593Z,98897.98
2018-12-09T01:25:53.963Z,98875.55
2018-12-09T01:28:22.392Z,98878.02
2018-12-09T01:30:52.029Z,98892.01
2018-12-09T01:33:20.451Z,98905.09
2018-12-09T01:38:35.687Z,98886.94
2018-12-09T01:41:04.514Z,98884.98
2018-12-09T01:46:14.825Z,98882.33
2018-12-09T01:48:43.726Z,98910.69
2018-12-09T01:51:12.172Z,98921.41
2018-12-09T01:54:14.100Z,98894.64
2018-12-09T01:56:43.830Z,98903.86
2018-12-09T02:01:54.147Z,98863.89
2018-12-09T02:07:03.926Z,98867.77
2018-12-09T02:09:32.479Z,98855.28
2018-12-09T02:12:00.866Z,98850.86
2018-12-09T02:17:11.091Z,98843.77
2018-12-09T02:19:39.616Z,98843.63
2018-12-09T02:22:08.330Z,98835.87
2018-12-09T02:27:18.467Z,98831.85
2018-12-09T02:29:46.874Z,98829.70
2018-12-09T02:32:15.480Z,98838.55
2018-12-09T02:34:51.950Z,98838.55
2018-12-09T02:37:20.484Z,98831.72
2018-12-09T02:42:34.835Z,98818.09
2018-12-09T02:45:03.847Z,98821.31
2018-12-09T02:47:32.456Z,98814.88
2018-12-09T02:50:00.855Z,98797.83
2018-12-09T02:52:29.489Z,98803.60
2018-12-09T02:54:57.901Z,98810.68
2018-12-09T02:57:26.393Z,98817.37
2018-12-09T02:59:54.872Z,98820.02
2018-12-09T03:02:23.227Z,98835.45
2018-12-09T03:07:33.521Z,98837.23
2018-12-09T03:10:02.451Z,98824.86
2018-12-09T03:12:31.019Z,98833.75
2018-12-09T03:14:59.348Z,98842.33
2018-12-09T03:20:09.544Z,98851.92
2018-12-09T03:22:38.106Z,98850.55
2018-12-09T03:27:48.621Z,98858.91
2018-12-09T03:30:17.072Z,98870.38
2018-12-09T03:32:45.474Z,98890.67
2018-12-09T03:35:13.886Z,98904.77
2018-12-09T03:37:42.214Z,98931.03
2018-12-09T03:42:52.928Z,98917.58
2018-12-09T03:45:26.870Z,98941.32
2018-12-09T03:50:37.749Z,98930.09
2018-12-09T03:53:07.319Z,98916.88
2018-12-09T03:55:35.733Z,98938.51
2018-12-09T03:58:04.200Z,98934.03
2018-12-09T04:00:32.621Z,98943.89
2018-12-09T04:03:01.195Z,98951.78
2018-12-09T04:05:29.549Z,98976.52
2018-12-09T04:10:39.806Z,98965.05
2018-12-09T04:15:57.376Z,98933.15
2018-12-09T04:18:27.944Z,98936.13
2018-12-09T04:20:56.442Z,98933.39
2018-12-09T04:23:24.897Z,98931.34
2018-12-09T04:25:53.253Z,98936.80
2018-12-09T04:31:03.499Z,98938.44
2018-12-09T04:36:13.692Z,98933.66
2018-12-09T04:38:42.054Z,98923.14
2018-12-09T04:41:10.430Z,98922.27
2018-12-09T04:46:20.785Z,98912.74
2018-12-09T04:48:49.197Z,98919.34
2018-12-09T04:51:17.547Z,98911.10
2018-12-09T04:56:27.958Z,98914.52
2018-12-09T04:59:23.255Z,98915.05
2018-12-09T05:01:51.958Z,98932.40
2018-12-09T05:04:20.656Z,98951.67
2018-12-09T05:06:49.115Z,98963.41
2018-12-09T05:09:17.477Z,98968.98
2018-12-09T05:11:45.833Z,98971.47
2018-12-09T05:14:14.195Z,98971.47
2018-12-09T05:19:24.321Z,98988.44
2018-12-09T05:21:53.101Z,98985.02
2018-12-09T05:24:21.590Z,98979.11
2018-12-09T05:26:49.954Z,98977.00
2018-12-09T05:31:57.106Z,98975.50
2018-12-09T05:37:07.284Z,98961.11
2018-12-09T05:39:35.742Z,98963.50
2018-12-09T05:44:47.320Z,98964.63
2018-12-09T05:47:19.390Z,98986.78
2018-12-09T05:49:48.092Z,98988.67
2018-12-09T05:52:16.444Z,98990.74
2018-12-09T05:54:44.831Z,98994.90
2018-12-09T05:57:13.319Z,98983.41
2018-12-09T05:59:42.251Z,98984.67
2018-12-09T06:05:09.978Z,98992.90
2018-12-09T06:07:38.311Z,98972.11
2018-12-09T06:10:07.132Z,98982.05
2018-12-09T06:12:35.558Z,98977.44
2018-12-09T06:15:04.581Z,98981.16
2018-12-09T06:20:14.773Z,99006.06
2018-12-09T06:22:43.160Z,99009.02
2018-12-09T06:27:53.432Z,99023.81
2018-12-09T06:30:21.896Z,99026.08
2018-12-09T06:35:32.372Z,99041.33
2018-12-09T06:38:01.020Z,99047.17
2018-12-09T06:40:29.369Z,99046.98
2018-12-09T06:42:57.738Z,99056.75
2018-12-09T06:48:07.909Z,99053.59
2018-12-09T06:50:36.550Z,99063.55
2018-12-09T06:55:48.254Z,99064.50
2018-12-09T06:58:16.689Z,99081.49
2018-12-09T07:00:45.203Z,99086.72
2018-12-09T07:03:13.660Z,99082.11
2018-12-09T07:05:42.048Z,99080.80
2018-12-09T07:08:10.421Z,99080.80
2018-12-09T07:10:39.942Z,99093.56
2018-12-09T07:13:08.386Z,99098.61
2018-12-09T07:15:36.768Z,99098.30
2018-12-09T07:20:47.407Z,99100.72
2018-12-09T07:23:15.877Z,99102.84
2018-12-09T07:25:47.384Z,99101.34
2018-12-09T07:28:15.943Z,99108.68
2018-12-09T07:30:44.549Z,99129.13
2018-12-09T07:33:13.487Z,99132.05
2018-12-09T07:35:41.906Z,99142.20
2018-12-09T07:40:52.077Z,99131.71
2018-12-09T07:43:22.566Z,99148.09
2018-12-09T07:48:33.252Z,99146.86
2018-12-09T07:51:01.666Z,99156.89
2018-12-09T07:56:11.982Z,99158.57
2018-12-09T07:58:40.332Z,99160.50
2018-12-09T08:01:08.780Z,99161.00
2018-12-09T08:03:37.562Z,99172.11
2018-12-09T08:06:06.095Z,99172.95
2018-12-09T08:08:34.435Z,99174.41
2018-12-09T08:11:02.873Z,99187.79
2018-12-09T08:13:31.218Z,99177.33
2018-12-09T08:15:59.649Z,99188.13
2018-12-09T08:18:27.956Z,99195.78
2018-12-09T08:20:56.353Z,99202.13
2018-12-09T08:23:24.735Z,99201.29
2018-12-09T08:25:53.159Z,99201.91
2018-12-09T08:28:21.971Z,99192.88
2018-12-09T08:30:50.410Z,99200.00
2018-12-09T08:36:04.837Z,99196.62
2018-12-09T08:38:33.202Z,99205.20
2018-12-09T08:41:01.691Z,99202.55
2018-12-09T08:43:30.052Z,99207.25
2018-12-09T08:48:40.039Z,99206.95
2018-12-09T08:51:08.531Z,99202.48
2018-12-09T08:53:36.941Z,99205.52
2018-12-09T08:56:05.315Z,99218.75
2018-12-09T08:58:33.693Z,99217.06
2018-12-09T09:03:43.833Z,99209.09
2018-12-09T09:08:54.291Z,99207.23
2018-12-09T09:11:22.659Z,99210.78
2018-12-09T09:13:51.243Z,99197.84
2018-12-09T09:16:19.587Z,99194.53
2018-12-09T09:18:47.992Z,99194.34
2018-12-09T09:23:58.386Z,99192.42
2018-12-09T09:26:26.792Z,99195.77
2018-12-09T09:31:37.361Z,99191.09
2018-12-09T09:34:05.763Z,99198.09
2018-12-09T09:36:34.166Z,99203.44
2018-12-09T09:39:04.053Z,99192.27
2018-12-09T09:41:32.701Z,99189.80
2018-12-09T09:44:04.738Z,99182.86
2018-12-09T09:49:14.809Z,99181.80
2018-12-09T09:51:43.268Z,99177.67
2018-12-09T09:56:54.680Z,99174.05
2018-12-09T09:59:23.033Z,99183.86
2018-12-09T10:01:51.728Z,99176.92
2018-12-09T10:04:20.127Z,99176.41
2018-12-09T10:06:48.773Z,99175.72
2018-12-09T10:09:17.145Z,99188.98
2018-12-09T10:11:45.548Z,99185.97
2018-12-09T10:16:56.369Z,99196.25
2018-12-09T10:19:24.721Z,99181.48
2018-12-09T10:21:58.759Z,99201.13
2018-12-09T10:24:27.096Z,99209.10
2018-12-09T10:26:55.398Z,99210.25
2018-12-09T10:32:05.751Z,99204.67
2018-12-09T10:34:38.745Z,99205.67
2018-12-09T10:37:05.541Z,99206.98
2018-12-09T10:39:33.895Z,99211.31
2018-12-09T10:42:02.666Z,99211.97
2018-12-09T10:44:31.039Z,99203.81
2018-12-09T10:47:03.100Z,99211.36
2018-12-09T10:49:31.520Z,99209.75
2018-12-09T10:51:59.835Z,99208.30
2018-12-09T10:54:28.202Z,99207.16
2018-12-09T10:59:39.575Z,99211.98
2018-12-09T11:02:13.732Z,99200.80
2018-12-09T11:04:42.201Z,99209.05
2018-12-09T11:07:10.560Z,99199.23
2018-12-09T11:09:38.949Z,99207.59
2018-12-09T11:12:07.782Z,99207.38
2018-12-09T11:14:36.268Z,99211.16
2018-12-09T11:17:04.675Z,99213.86
2018-12-09T11:19:33.339Z,99202.89
2018-12-09T11:22:01.967Z,99207.43
2018-12-09T11:24:30.440Z,99214.48
2018-12-09T11:26:58.797Z,99204.05
2018-12-09T11:29:27.224Z,99191.11
2018-12-09T11:31:55.578Z,99194.73
2018-12-09T11:34:23.961Z,99180.23
2018-12-09T11:36:52.466Z,99180.69
2018-12-09T11:39:20.876Z,99174.05
2018-12-09T11:44:31.580Z,99169.31
2018-12-09T11:46:59.949Z,99162.46
2018-12-09T11:52:10.297Z,99155.11
2018-12-09T11:54:38.682Z,99154.91
2018-12-09T11:59:51.234Z,99165.78
2018-12-09T12:05:01.520Z,99152.63
2018-12-09T12:07:29.927Z,99158.53
2018-12-09T12:09:58.429Z,99156.92
2018-12-09T12:12:30.547Z,99160.23
2018-12-09T12:14:58.961Z,99170.41
2018-12-09T12:20:09.703Z,99144.27
2018-12-09T12:22:38.118Z,99150.41
2018-12-09T12:27:48.701Z,99139.93
2018-12-09T12:30:17.338Z,99144.22
2018-12-09T12:35:27.498Z,99114.81
2018-12-09T12:37:55.862Z,99104.73
2018-12-09T12:40:24.279Z,99109.37
2018-12-09T12:42:53.248Z,99108.81
2018-12-09T12:48:03.682Z,99109.93
2018-12-09T12:50:32.129Z,99111.69
2018-12-09T12:53:00.733Z,99103.13
2018-12-09T12:55:29.183Z,99104.94
2018-12-09T13:00:39.529Z,99107.36
2018-12-09T13:03:08.004Z,99110.17
2018-12-09T13:08:18.563Z,99128.62
2018-12-09T13:10:46.998Z,99136.67
2018-12-09T13:13:19.478Z,99128.51
2018-12-09T13:15:47.904Z,99118.39
2018-12-09T13:20:58.186Z,99137.56
2018-12-09T13:23:27.567Z,99134.69
2018-12-09T13:25:56.239Z,99123.47
2018-12-09T13:28:24.728Z,99120.55
2018-12-09T13:30:53.438Z,99130.91
2018-12-09T13:36:04.473Z,99145.05
2018-12-09T13:38:32.842Z,99140.17
2018-12-09T13:41:01.443Z,99143.48
2018-12-09T13:43:29.892Z,99149.22
2018-12-09T13:48:40.066Z,99136.64
2018-12-09T13:51:08.407Z,99144.69
2018-12-09T13:53:36.798Z,99159.08
2018-12-09T13:56:05.200Z,99154.66
2018-12-09T14:01:15.430Z,99167.23
2018-12-09T14:03:43.814Z,99168.05
2018-12-09T14:06:13.243Z,99164.31
2018-12-09T14:08:41.647Z,99175.28
2018-12-09T14:11:10.092Z,99173.16
2018-12-09T14:13:42.519Z,99175.95
2018-12-09T14:16:10.921Z,99180.56
2018-12-09T14:18:39.421Z,99177.45
2018-12-09T14:21:07.810Z,99176.83
2018-12-09T14:23:36.260Z,99189.92
2018-12-09T14:26:04.879Z,99184.48
2018-12-09T14:28:33.324Z,99201.50
2018-12-09T14:31:01.787Z,99207.23
2018-12-09T14:33:30.307Z,99204.62
2018-12-09T14:35:58.864Z,99207.35
2018-12-09T14:41:09.058Z,99216.82
2018-12-09T14:43:37.412Z,99214.85
2018-12-09T14:46:05.808Z,99234.29
2018-12-09T14:48:34.209Z,99232.67
2018-12-09T14:51:02.751Z,99228.44
2018-12-09T14:53:31.242Z,99234.03
2018-12-09T14:55:59.647Z,99238.76
2018-12-09T14:58:28.183Z,99251.54
2018-12-09T15:00:56.574Z,99242.38
2018-12-09T15:03:25.016Z,99247.92
2018-12-09T15:08:35.874Z,99242.88
2018-12-09T15:11:04.255Z,99235.03
2018-12-09T15:13:32.640Z,99237.76
2018-12-09T15:16:01.050Z,99228.94
2018-12-09T15:21:16.601Z,99243.00
2018-12-09T15:23:44.856Z,99244.45
2018-12-09T15:28:55.432Z,99254.23
2018-12-09T15:31:23.817Z,99260.27
2018-12-09T15:33:52.193Z,99271.86
2018-12-09T15:36:20.640Z,99278.25
2018-12-09T15:38:48.987Z,99287.26
2018-12-09T15:41:17.357Z,99284.52
2018-12-09T15:43:45.821Z,99297.03
2018-12-09T15:46:14.237Z,99296.41
2018-12-09T15:51:24.440Z,99303.38
2018-12-09T15:56:35.097Z,99322.69
2018-12-09T15:59:03.600Z,99330.88
2018-12-09T16:01:32.083Z,99323.84
2018-12-09T16:04:00.512Z,99342.66
2018-12-09T16:09:10.743Z,99359.70
2018-12-09T16:11:39.142Z,99369.70
2018-12-09T16:16:49.181Z,99388.83
2018-12-09T16:19:17.845Z,99395.87
2018-12-09T16:21:46.194Z,99401.41
2018-12-09T16:24:14.953Z,99409.27
2018-12-09T16:26:43.548Z,99417.92
2018-12-09T16:29:12.025Z,99421.84
2018-12-09T16:31:40.477Z,99432.31
2018-12-09T16:34:09.600Z,99439.17
2018-12-09T16:39:19.623Z,99445.58
2018-12-09T16:41:48.218Z,99447.86
2018-12-09T16:46:58.769Z,99457.25
2018-12-09T16:49:27.522Z,99460.68
2018-12-09T16:51:56.924Z,99464.11
2018-12-09T16:54:25.641Z,99469.84
2018-12-09T16:56:54.323Z,99466.56
2018-12-09T16:59:22.888Z,99474.10
2018-12-09T17:01:51.351Z,99486.06
2018-12-09T17:04:21.414Z,99494.41
2018-12-09T17:06:50.024Z,99496.39
2018-12-09T17:09:18.459Z,99507.01
2018-12-09T17:11:47.049Z,99516.16
2018-12-09T17:14:16.263Z,99520.91
2018-12-09T17:16:44.900Z,99519.78
2018-12-09T17:19:14.127Z,99527.31
2018-12-09T17:21:42.732Z,99528.48
2018-12-09T17:24:11.142Z,99543.69
2018-12-09T17:26:39.876Z,99539.77
2018-12-09T17:29:08.664Z,99540.57
2018-12-09T17:34:19.071Z,99554.47
2018-12-09T17:36:47.635Z,99552.16
2018-12-09T17:39:16.240Z,99567.05
2018-12-09T17:41:45.046Z,99562.94
2018-12-09T17:44:13.579Z,99566.37
2018-12-09T17:46:42.423Z,99571.10
2018-12-09T17:49:11.031Z,99576.52
2018-12-09T17:51:39.538Z,99584.55
2018-12-09T17:54:08.570Z,99592.89
2018-12-09T17:56:37.463Z,99597.31
2018-12-09T18:01:49.216Z,99608.72
2018-12-09T18:04:17.760Z,99608.41
2018-12-09T18:06:46.367Z,99613.14
2018-12-09T18:09:15.087Z,99612.64
2018-12-09T18:14:25.820Z,99632.90
2018-12-09T18:16:54.432Z,99634.55
2018-12-09T18:22:05.124Z,99644.34
2018-12-09T18:27:15.875Z,99658.05
2018-12-09T18:29:44.353Z,99658.54
2018-12-09T18:34:55.672Z,99681.90
2018-12-09T18:37:24.356Z,99682.21
2018-12-09T18:39:53.349Z,99683.84
2018-12-09T18:42:22.083Z,99690.20
2018-12-09T18:44:50.758Z,99711.45
2018-12-09T18:47:20.508Z,99713.08
2018-12-09T18:49:49.129Z,99734.02
2018-12-09T18:52:17.641Z,99734.02
2018-12-09T18:54:46.275Z,99746.14
2018-12-09T18:57:14.801Z,99753.81
2018-12-09T18:59:43.372Z,99755.75
2018-12-09T19:02:11.779Z,99768.34
2018-12-09T19:04:40.885Z,99775.70
2018-12-09T19:07:09.366Z,99780.94
2018-12-09T19:09:38.054Z,99791.73
2018-12-09T19:12:06.852Z,99798.13
2018-12-09T19:14:35.621Z,99811.03
2018-12-09T19:17:04.670Z,99810.53
2018-12-09T19:19:33.210Z,99815.59
2018-12-09T19:22:01.960Z,99825.88
2018-12-09T19:27:12.730Z,99823.27
2018-12-09T19:29:42.145Z,99833.06
2018-12-09T19:34:52.579Z,99847.78
2018-12-09T19:37:21.142Z,99849.09
2018-12-09T19:39:49.602Z,99841.09
2018-12-09T19:42:20.129Z,99853.02
2018-12-09T19:44:49.168Z,99858.60
2018-12-09T19:47:18.055Z,99862.84
2018-12-09T19:49:46.493Z,99873.14
2018-12-09T19:52:15.490Z,99862.35
2018-12-09T19:54:44.256Z,99868.08
2018-12-09T19:57:13.065Z,99876.25
2018-12-09T19:59:41.860Z,99883.47
2018-12-09T20:02:10.373Z,99898.36
2018-12-09T20:07:20.752Z,99913.75
2018-12-09T20:09:49.917Z,99911.78
2018-12-09T20:12:21.066Z,99917.68
2018-12-09T20:17:32.221Z,99924.58
2018-12-09T20:20:00.927Z,99931.95
2018-12-09T20:22:29.814Z,99936.70
2018-12-09T20:24:58.348Z,99935.38
2018-12-09T20:27:27.945Z,99935.73
2018-12-09T20:29:57.368Z,99937.20
2018-12-09T20:32:26.376Z,99947.70
2018-12-09T20:34:54.908Z,99948.17
2018-12-09T20:37:23.564Z,99961.57
2018-12-09T20:42:34.098Z,99971.23
2018-12-09T20:45:03.036Z,99970.89
2018-12-09T20:47:31.615Z,99973.53
2018-12-09T20:50:00.028Z,99979.73
2018-12-09T20:55:10.706Z,99985.94
2018-12-09T20:57:39.049Z,99994.59
2018-12-09T21:00:08.860Z,99997.84
2018-12-09T21:02:37.851Z,99997.98
2018-12-09T21:07:49.822Z,100008.11
2018-12-09T21:10:18.703Z,100009.85
2018-12-09T21:15:29.255Z,100025.52
2018-12-09T21:17:57.883Z,100022.42
2018-12-09T21:20:27.733Z,100026.97
2018-12-09T21:22:56.490Z,100036.60
2018-12-09T21:25:24.992Z,100038.89
2018-12-09T21:30:35.762Z,100042.45
2018-12-09T21:33:05.145Z,100044.90
2018-12-09T21:38:15.417Z,100052.58
2018-12-09T21:40:43.972Z,100054.99
2018-12-09T21:45:54.717Z,100058.75
2018-12-09T21:48:23.203Z,100054.17
2018-12-09T21:50:51.695Z,100056.79
2018-12-09T21:53:20.099Z,100051.56
2018-12-09T21:58:31.338Z,100059.89
2018-12-09T22:01:00.098Z,100065.73
2018-12-09T22:06:10.870Z,100078.18
2018-12-09T22:08:39.622Z,100084.55
2018-12-09T22:11:08.385Z,100082.30
2018-12-09T22:13:36.941Z,100089.80
2018-12-09T22:16:05.576Z,100097.31
2018-12-09T22:18:34.009Z,100105.84
2018-12-09T22:21:03.008Z,100116.94
2018-12-09T22:26:13.952Z,100123.02
2018-12-09T22:28:42.447Z,100128.90
2018-12-09T22:31:10.966Z,100133.14
2018-12-09T22:33:39.591Z,100130.23
2018-12-09T22:36:17.878Z,100135.14
2018-12-09T22:38:58.055Z,100147.72
2018-12-09T22:41:31.628Z,100165.03
2018-12-09T22:46:50.521Z,100167.39
2018-12-09T22:49:28.097Z,100170.98
2018-12-09T22:52:04.249Z,100181.27
2018-12-09T22:54:40.648Z,100172.32
2018-12-09T22:57:10.055Z,100186.05
2018-12-09T22:59:51.676Z,100191.92
2018-12-09T23:02:26.801Z,100202.25
2018-12-09T23:04:56.096Z,100197.84
2018-12-09T23:07:30.126Z,100200.78
2018-12-09T23:09:58.979Z,100205.36
2018-12-09T23:15:09.486Z,100216.80
2018-12-09T23:17:37.954Z,100224.97
2018-12-09T23:20:06.606Z,100229.05
2018-12-09T23:22:34.998Z,100225.12
2018-12-09T23:25:03.830Z,100232.81
2018-12-09T23:27:32.248Z,100239.34
2018-12-09T23:30:00.981Z,100247.19
2018-12-09T23:32:29.385Z,100253.89
2018-12-09T23:37:40.340Z,100251.77
2018-12-09T23:40:09.028Z,100260.27
2018-12-09T23:42:37.502Z,100275.29
2018-12-09T23:45:06.637Z,100282.64
2018-12-09T23:47:35.524Z,100288.69
2018-12-09T23:50:06.092Z,100279.70
2018-12-09T23:55:16.562Z,100291.27
2018-12-09T23:57:45.173Z,100299.76
